This is the latest recevied weather packets stored in our database for station/object VE9LJW. If no packets are shown the sender has not sent any weather packets the latest 10 day(s).
| Time | Temp. | Humidity | Pressure | Rain* | Wind** | Luminosity | Snow |
|---|---|---|---|---|---|---|---|
| 1778075110 | 15° C | 93% | 1008.8 hPa | 0 mm | - | 341 W/m² | - |
| 1778074807 | 15.56° C | 94% | 1009 hPa | 0 mm | - | 202 W/m² | - |
| 1778074504 | 15° C | 94% | 1009.1 hPa | 0 mm | - | 231 W/m² | - |
| 1778074201 | 15° C | 95% | 1009.2 hPa | 0 mm | - | 214 W/m² | - |
| 1778073898 | 15° C | 95% | 1009.3 hPa | 0 mm | - | 172 W/m² | - |
| 1778073595 | 14.44° C | 96% | 1008.9 hPa | 0 mm | - | 254 W/m² | - |
| 1778073292 | 14.44° C | 97% | 1009.1 hPa | 0 mm | - | 191 W/m² | - |
| 1778072988 | 14.44° C | 97% | 1009.3 hPa | 0 mm | - | 131 W/m² | - |
| 1778072685 | 14.44° C | 97% | 1008.7 hPa | 0 mm | - | 204 W/m² | - |
| 1778072383 | 14.44° C | 97% | 1009.1 hPa | 0 mm | - | 184 W/m² | - |
| 1778072081 | 13.89° C | 98% | 1009.3 hPa | 0 mm | - | 158 W/m² | - |
| 1778071779 | 13.89° C | 99% | 1009.2 hPa | 0 mm | - | 172 W/m² | - |
| 1778071476 | 13.89° C | 99% | 1009.1 hPa | 0 mm | - | 137 W/m² | - |
| 1778071174 | 13.89° C | 99% | 1009 hPa | 0 mm | - | 170 W/m² | - |
| 1778070872 | 13.33° C | 99% | 1009.1 hPa | 0 mm | - | 149 W/m² | - |
| 1778070569 | 13.33° C | 99% | 1009.2 hPa | 0 mm | - | 100 W/m² | - |
| 1778070266 | 13.33° C | 99% | 1009.5 hPa | 0 mm | - | 61 W/m² | - |
| 1778069964 | 13.33° C | 99% | 1009.2 hPa | 0 mm | - | 78 W/m² | - |
| 1778069661 | 13.33° C | 99% | 1009.5 hPa | 0 mm | - | 55 W/m² | - |
| 1778069358 | 13.33° C | 99% | 1009.6 hPa | 0 mm | - | 64 W/m² | - |
| 1778069055 | 13.33° C | 99% | 1009.5 hPa | 0.51 mm | - | 38 W/m² | - |
| 1778068752 | 12.78° C | 99% | 1009.7 hPa | 0.51 mm | - | 45 W/m² | - |
| 1778068450 | 12.78° C | 99% | 1009.4 hPa | 0 mm | - | 31 W/m² | - |
| 1778068148 | 13.33° C | 99% | 1009.1 hPa | 0 mm | - | 27 W/m² | - |
| 1778067846 | 12.78° C | 99% | 1009.1 hPa | 0 mm | - | 28 W/m² | - |
* Rain latest hour (hover to see other rain measurements)
** Current wind speed in m/s (hover to see current wind gust speed)